Time;durP1;ratioP1;P1;durP2;ratioP2;P2;SDS_P1;SDS_P2;PMS_P1;PMS_P2;Temp;Humidity;BMP_temperature;BMP_pressure;BME280_temperature;BME280_humidity;BME280_pressure;Samples;Min_cycle;Max_cycle;Signal;HPM_P1;HPM_P2
2022/04/21 00:01:51;;;;;;;1.05;0.90;;;;;;;;;;20974922;28;20140;-84
2022/04/21 00:11:53;;;;;;;2.33;1.10;;;;;;;;;;20975577;28;20072;-83
2022/04/21 00:32:15;;;;;;;1.10;0.90;;;;;;;;;;20964546;28;20056;-83
2022/04/21 00:42:17;;;;;;;1.40;1.08;;;;;;;;;;21006531;28;20075;-81
2022/04/21 00:52:21;;;;;;;1.08;0.80;;;;;;;;;;20987227;28;20079;-82
2022/04/21 01:12:45;;;;;;;1.30;1.05;;;;;;;;;;21004457;28;20052;-83
2022/04/21 01:22:46;;;;;;;1.50;0.88;;;;;;;;;;20968924;28;20405;-84
2022/04/21 01:32:49;;;;;;;1.05;0.80;;;;;;;;;;20985694;28;20102;-82
2022/04/21 01:42:51;;;;;;;0.82;0.80;;;;;;;;;;20966535;28;20147;-82
2022/04/21 01:52:53;;;;;;;1.13;0.90;;;;;;;;;;21000788;28;20123;-82
2022/04/21 02:02:54;;;;;;;1.10;0.95;;;;;;;;;;20981675;28;20040;-81
2022/04/21 02:12:57;;;;;;;0.98;0.82;;;;;;;;;;20983588;28;20143;-84
2022/04/21 02:22:58;;;;;;;1.33;1.17;;;;;;;;;;20998881;28;20135;-82
2022/04/21 02:33:00;;;;;;;1.08;0.90;;;;;;;;;;20997393;28;20048;-88
2022/04/21 02:43:02;;;;;;;1.70;1.02;;;;;;;;;;21542729;22;20151;-88
2022/04/21 02:53:08;;;;;;;2.40;1.23;;;;;;;;;;21078778;28;20048;-89
2022/04/21 03:03:30;;;;;;;2.03;1.00;;;;;;;;;;21077913;28;20048;-88
2022/04/21 03:13:32;;;;;;;1.55;0.90;;;;;;;;;;21059880;28;20047;-87
2022/04/21 03:33:54;;;;;;;1.63;1.00;;;;;;;;;;21076665;28;20485;-87
2022/04/21 03:43:55;;;;;;;2.03;1.23;;;;;;;;;;21075090;28;20146;-89
2022/04/21 03:53:58;;;;;;;1.02;0.80;;;;;;;;;;21073104;28;20049;-91
2022/04/21 04:04:00;;;;;;;1.15;1.00;;;;;;;;;;21072797;28;20507;-89
2022/04/21 04:14:01;;;;;;;1.23;0.90;;;;;;;;;;21070263;28;20048;-86
2022/04/21 04:24:03;;;;;;;0.93;0.80;;;;;;;;;;21087786;28;20046;-88
2022/04/21 04:44:29;;;;;;;0.93;0.93;;;;;;;;;;21055901;28;20044;-88
2022/04/21 04:54:31;;;;;;;1.73;1.10;;;;;;;;;;21104802;28;20124;-88
2022/04/21 05:04:32;;;;;;;0.85;0.80;;;;;;;;;;21083095;28;20118;-88
2022/04/21 05:14:34;;;;;;;0.85;0.80;;;;;;;;;;21047892;28;20051;-88
2022/04/21 05:24:36;;;;;;;1.40;0.90;;;;;;;;;;21081512;28;20505;-88
2022/04/21 05:34:39;;;;;;;0.95;0.80;;;;;;;;;;21080396;28;20559;-88
2022/04/21 05:44:41;;;;;;;0.85;0.70;;;;;;;;;;21080113;28;20150;-85
2022/04/21 05:54:43;;;;;;;0.70;0.70;;;;;;;;;;21079141;28;20052;-85
2022/04/21 06:04:44;;;;;;;0.75;0.68;;;;;;;;;;21078750;28;20048;-85
2022/04/21 06:14:46;;;;;;;0.95;0.80;;;;;;;;;;21077695;28;20056;-86
2022/04/21 06:24:48;;;;;;;0.65;0.65;;;;;;;;;;21058190;28;20502;-85
2022/04/21 06:34:49;;;;;;;1.23;0.73;;;;;;;;;;21048054;28;20372;-85
2022/04/21 06:55:11;;;;;;;0.60;0.60;;;;;;;;;;21074166;28;20044;-85
2022/04/21 07:05:13;;;;;;;0.82;0.82;;;;;;;;;;21078133;28;20079;-89
2022/04/21 07:15:15;;;;;;;1.85;1.00;;;;;;;;;;21057434;28;20072;-83
2022/04/21 07:25:17;;;;;;;4.05;1.58;;;;;;;;;;21066868;28;20048;-86
2022/04/21 07:35:25;;;;;;;1.20;0.90;;;;;;;;;;21046129;28;20139;-81
2022/04/21 07:45:33;;;;;;;1.27;0.95;;;;;;;;;;21040793;28;20040;-86
2022/04/21 07:55:35;;;;;;;2.67;1.10;;;;;;;;;;21063501;28;20177;-85
2022/04/21 08:05:37;;;;;;;6.07;1.63;;;;;;;;;;21066829;28;20036;-85
2022/04/21 08:15:39;;;;;;;1.55;0.90;;;;;;;;;;21048498;28;20051;-85
2022/04/21 08:36:06;;;;;;;1.73;1.00;;;;;;;;;;20987489;28;20117;-87
2022/04/21 08:46:09;;;;;;;0.93;0.82;;;;;;;;;;21000923;28;20060;-84
2022/04/21 08:56:12;;;;;;;1.88;0.90;;;;;;;;;;20982250;28;20131;-82
2022/04/21 09:06:13;;;;;;;1.58;1.02;;;;;;;;;;20999731;28;20422;-85
2022/04/21 09:16:20;;;;;;;1.80;1.00;;;;;;;;;;20998724;28;20047;-85
2022/04/21 09:26:22;;;;;;;1.02;0.80;;;;;;;;;;20980030;28;20560;-86
2022/04/21 09:36:24;;;;;;;1.35;0.90;;;;;;;;;;21040584;28;20040;-86
2022/04/21 09:46:26;;;;;;;2.33;0.75;;;;;;;;;;21068109;28;20047;-84
2022/04/21 09:56:29;;;;;;;0.98;0.85;;;;;;;;;;21053515;28;20456;-85
2022/04/21 10:06:31;;;;;;;0.95;0.80;;;;;;;;;;21077791;28;20414;-85
2022/04/21 10:16:32;;;;;;;1.23;0.85;;;;;;;;;;21059665;28;20044;-88
2022/04/21 10:26:37;;;;;;;2.72;1.30;;;;;;;;;;21056997;28;20048;-89
2022/04/21 10:36:41;;;;;;;;;;;;;;;;;;21076838;28;20048;-87
2022/04/21 10:46:43;;;;;;;1.13;0.80;;;;;;;;;;21058078;28;19969;-87
2022/04/21 10:57:13;;;;;;;1.13;1.00;;;;;;;;;;21056370;28;20110;-87
2022/04/21 11:07:15;;;;;;;0.95;0.80;;;;;;;;;;21074045;28;20042;-87
2022/04/21 11:17:17;;;;;;;1.02;0.73;;;;;;;;;;21055525;28;20086;-87
2022/04/21 11:27:19;;;;;;;1.30;0.80;;;;;;;;;;21067520;28;20044;-88
2022/04/21 11:37:20;;;;;;;1.20;0.73;;;;;;;;;;20953747;28;20052;-91
2022/04/21 11:47:22;;;;;;;0.80;0.80;;;;;;;;;;20970686;28;20044;-88
2022/04/21 11:57:37;;;;;;;0.77;0.77;;;;;;;;;;20987831;28;20389;-88
2022/04/21 12:07:41;;;;;;;2.88;1.13;;;;;;;;;;20987745;28;20052;-88
2022/04/21 12:17:42;;;;;;;1.77;1.00;;;;;;;;;;20987344;28;20076;-87
2022/04/21 12:27:44;;;;;;;1.48;0.90;;;;;;;;;;20990090;28;20456;-90
2022/04/21 12:48:21;;;;;;;1.20;1.10;;;;;;;;;;21001165;28;20454;-88
2022/04/21 12:58:28;;;;;;;1.58;1.00;;;;;;;;;;20982419;28;20041;-89
2022/04/21 13:08:30;;;;;;;1.05;0.95;;;;;;;;;;20999805;28;20040;-89
2022/04/21 13:18:32;;;;;;;2.13;0.95;;;;;;;;;;20981355;28;20041;-84
2022/04/21 13:28:34;;;;;;;0.85;0.80;;;;;;;;;;20980365;28;20059;-88
2022/04/21 13:38:36;;;;;;;1.35;0.80;;;;;;;;;;20961760;28;20045;-88
2022/04/21 13:48:38;;;;;;;1.10;0.90;;;;;;;;;;20913469;28;20045;-88
2022/04/21 13:58:40;;;;;;;1.02;0.85;;;;;;;;;;20912830;28;20049;-88
2022/04/21 14:08:44;;;;;;;0.93;0.90;;;;;;;;;;20911191;28;20052;-89
2022/04/21 14:18:47;;;;;;;1.33;1.10;;;;;;;;;;20910013;28;20454;-88
2022/04/21 14:28:48;;;;;;;1.05;0.90;;;;;;;;;;20910175;28;20234;-88
2022/04/21 14:49:11;;;;;;;1.10;1.00;;;;;;;;;;20991109;28;20379;-89
2022/04/21 14:59:13;;;;;;;0.95;0.80;;;;;;;;;;20990901;28;20050;-85
2022/04/21 15:09:16;;;;;;;1.00;0.90;;;;;;;;;;20989894;28;20040;-88
2022/04/21 15:19:17;;;;;;;1.65;0.90;;;;;;;;;;20989603;28;20490;-87
2022/04/21 15:29:19;;;;;;;2.22;0.80;;;;;;;;;;20989364;28;20052;-87
2022/04/21 15:39:21;;;;;;;0.80;0.80;;;;;;;;;;20985173;28;20048;-85
2022/04/21 15:49:23;;;;;;;1.17;1.08;;;;;;;;;;21071664;28;20043;-86
2022/04/21 15:59:24;;;;;;;1.60;1.20;;;;;;;;;;21072122;28;20040;-85
2022/04/21 16:09:26;;;;;;;1.83;1.20;;;;;;;;;;21068670;28;20476;-87
2022/04/21 16:19:28;;;;;;;1.02;0.90;;;;;;;;;;21087634;28;20051;-86
2022/04/21 16:29:29;;;;;;;1.48;1.20;;;;;;;;;;21086384;28;20044;-86
2022/04/21 16:39:32;;;;;;;1.13;1.08;;;;;;;;;;21085306;28;20134;-85
2022/04/21 16:49:34;;;;;;;1.60;1.40;;;;;;;;;;21081252;28;20086;-88
2022/04/21 16:59:37;;;;;;;2.20;1.80;;;;;;;;;;21050507;28;20044;-86
2022/04/21 17:09:39;;;;;;;2.72;1.90;;;;;;;;;;21064330;28;20052;-87
2022/04/21 17:19:41;;;;;;;2.25;1.60;;;;;;;;;;21082024;28;20056;-88
2022/04/21 17:29:43;;;;;;;2.38;1.80;;;;;;;;;;21081723;28;20379;-87
2022/04/21 17:39:45;;;;;;;2.15;1.80;;;;;;;;;;21064939;28;20135;-88
2022/04/21 17:49:47;;;;;;;2.30;2.00;;;;;;;;;;21062270;28;20101;-86
2022/04/21 17:59:49;;;;;;;1.92;1.50;;;;;;;;;;21062289;28;20482;-88
2022/04/21 18:09:51;;;;;;;2.05;1.83;;;;;;;;;;21061681;28;20052;-87
2022/04/21 18:19:53;;;;;;;3.03;1.70;;;;;;;;;;21077313;28;20127;-88
2022/04/21 18:29:56;;;;;;;2.58;2.08;;;;;;;;;;21020060;28;20052;-86
2022/04/21 18:39:57;;;;;;;3.30;1.85;;;;;;;;;;21056182;28;20472;-88
2022/04/21 18:50:00;;;;;;;3.25;1.80;;;;;;;;;;21043836;28;20048;-90
2022/04/21 19:00:02;;;;;;;3.25;2.03;;;;;;;;;;21005337;28;20109;-90
2022/04/21 19:10:04;;;;;;;3.17;1.50;;;;;;;;;;21026988;28;20056;-89
2022/04/21 19:20:09;;;;;;;2.90;1.60;;;;;;;;;;21071660;28;20405;-87
2022/04/21 19:30:11;;;;;;;1.48;1.35;;;;;;;;;;21028671;28;20387;-90
2022/04/21 19:40:13;;;;;;;2.03;1.60;;;;;;;;;;21040900;28;20058;-89
2022/04/21 19:50:19;;;;;;;2.10;1.33;;;;;;;;;;21017964;28;20138;-87
2022/04/21 20:00:22;;;;;;;1.52;1.23;;;;;;;;;;21046750;28;20047;-91
2022/04/21 20:10:44;;;;;;;1.30;1.20;;;;;;;;;;21043038;28;20493;-87
2022/04/21 20:31:06;;;;;;;2.03;1.45;;;;;;;;;;21038144;28;20052;-86
2022/04/21 20:41:08;;;;;;;1.42;1.20;;;;;;;;;;21074787;28;20052;-86
2022/04/21 20:51:10;;;;;;;1.15;1.05;;;;;;;;;;21064355;28;20054;-89
2022/04/21 21:01:16;;;;;;;2.38;1.13;;;;;;;;;;21073370;28;20156;-87
2022/04/21 21:11:18;;;;;;;1.27;1.17;;;;;;;;;;21089056;28;20078;-88
2022/04/21 21:21:19;;;;;;;1.77;1.10;;;;;;;;;;21088558;28;20058;-87
2022/04/21 21:31:21;;;;;;;2.53;1.10;;;;;;;;;;21055235;28;20097;-87
2022/04/21 21:41:23;;;;;;;1.17;1.08;;;;;;;;;;21088163;28;20048;-88
2022/04/21 22:01:45;;;;;;;1.10;1.00;;;;;;;;;;21050982;28;20044;-85
2022/04/21 22:11:47;;;;;;;1.90;1.17;;;;;;;;;;21051618;28;20052;-86
2022/04/21 22:21:48;;;;;;;0.90;0.90;;;;;;;;;;20998744;28;20555;-85
2022/04/21 22:31:50;;;;;;;1.15;1.05;;;;;;;;;;21053882;28;20048;-86
2022/04/21 22:41:52;;;;;;;0.98;0.93;;;;;;;;;;21082746;28;20471;-86
2022/04/21 22:51:54;;;;;;;1.13;1.00;;;;;;;;;;21081258;28;20052;-86
2022/04/21 23:01:56;;;;;;;2.42;1.00;;;;;;;;;;21063314;28;20051;-85
2022/04/21 23:22:18;;;;;;;2.03;1.20;;;;;;;;;;21047755;28;20040;-86
2022/04/21 23:32:20;;;;;;;1.15;0.90;;;;;;;;;;21044133;28;20048;-87
2022/04/21 23:42:21;;;;;;;1.60;1.35;;;;;;;;;;21059687;28;20139;-87
2022/04/21 23:52:23;;;;;;;1.30;1.10;;;;;;;;;;21042674;28;20058;-87
